createdAt,value
2023-01-18T00:00:34.848Z,6.47
2023-01-18T00:03:02.806Z,6.80
2023-01-18T00:05:30.723Z,5.73
2023-01-18T00:07:59.996Z,6.80
2023-01-18T00:10:28.058Z,6.73
2023-01-18T00:12:56.529Z,6.03
2023-01-18T00:15:24.660Z,5.93
2023-01-18T00:17:52.609Z,6.53
2023-01-18T00:20:22.874Z,5.30
2023-01-18T00:22:51.661Z,6.57
2023-01-18T00:25:23.136Z,5.13
2023-01-18T00:27:52.707Z,6.40
2023-01-18T00:30:22.504Z,6.13
2023-01-18T00:32:53.368Z,5.30
2023-01-18T00:35:22.195Z,5.20
2023-01-18T00:37:51.512Z,5.80
2023-01-18T00:40:21.806Z,5.90
2023-01-18T00:43:07.218Z,5.77
2023-01-18T00:45:35.317Z,5.20
2023-01-18T00:48:03.587Z,6.17
2023-01-18T00:50:31.512Z,5.70
2023-01-18T00:53:00.171Z,5.67
2023-01-18T00:55:30.002Z,7.53
2023-01-18T00:57:58.368Z,6.57
2023-01-18T01:00:27.110Z,7.00
2023-01-18T01:02:55.871Z,6.10
2023-01-18T01:05:44.557Z,7.07
2023-01-18T01:08:17.374Z,7.37
2023-01-18T01:10:48.719Z,7.53
2023-01-18T01:13:36.067Z,7.50
2023-01-18T01:16:23.842Z,6.70
2023-01-18T01:19:09.692Z,7.30
2023-01-18T01:21:55.573Z,6.83
2023-01-18T01:24:41.069Z,6.20
2023-01-18T01:27:11.209Z,7.97
2023-01-18T01:29:39.543Z,6.17
2023-01-18T01:32:07.546Z,6.73
2023-01-18T01:34:35.899Z,6.80
2023-01-18T01:37:04.390Z,6.97
2023-01-18T01:39:32.380Z,7.00
2023-01-18T01:42:00.323Z,8.40
2023-01-18T01:44:46.201Z,7.87
2023-01-18T01:47:32.129Z,8.00
2023-01-18T01:50:03.927Z,7.43
2023-01-18T01:52:37.359Z,8.20
2023-01-18T01:55:11.809Z,7.30
2023-01-18T01:57:44.004Z,8.03
2023-01-18T02:00:16.345Z,7.80
2023-01-18T02:02:47.279Z,8.17
2023-01-18T02:05:18.048Z,8.73
2023-01-18T02:07:46.626Z,8.63
2023-01-18T02:10:14.578Z,7.57
2023-01-18T02:12:45.121Z,8.17
2023-01-18T02:15:14.683Z,7.53
2023-01-18T02:17:54.668Z,7.80
2023-01-18T02:20:55.032Z,7.83
2023-01-18T02:24:15.195Z,7.00
2023-01-18T02:26:53.244Z,7.37
2023-01-18T02:29:32.536Z,8.03
2023-01-18T02:32:12.110Z,7.17
2023-01-18T02:34:43.936Z,7.40
2023-01-18T02:37:19.927Z,6.90
2023-01-18T02:39:59.707Z,6.90
2023-01-18T02:42:47.011Z,6.93
2023-01-18T02:45:39.647Z,7.27
2023-01-18T02:48:09.296Z,7.93
2023-01-18T02:50:38.597Z,7.60
2023-01-18T02:53:06.496Z,9.40
2023-01-18T02:55:41.667Z,6.43
2023-01-18T02:58:14.801Z,7.50
2023-01-18T03:00:48.243Z,7.63
2023-01-18T03:03:20.155Z,8.57
2023-01-18T03:05:49.223Z,7.93
2023-01-18T03:08:22.696Z,8.60
2023-01-18T03:11:00.134Z,8.10
2023-01-18T03:13:37.752Z,9.10
2023-01-18T03:16:14.036Z,8.17
2023-01-18T03:19:01.662Z,9.00
2023-01-18T03:21:41.730Z,7.90
2023-01-18T03:24:10.266Z,7.57
2023-01-18T03:26:41.630Z,9.03
2023-01-18T03:29:29.215Z,6.87
2023-01-18T03:32:20.528Z,7.47
2023-01-18T03:34:53.550Z,8.77
2023-01-18T03:37:26.388Z,7.60
2023-01-18T03:39:58.200Z,7.40
2023-01-18T03:42:31.805Z,8.57
2023-01-18T03:45:07.196Z,8.57
2023-01-18T03:47:36.634Z,8.90
2023-01-18T03:50:05.522Z,9.30
2023-01-18T03:52:41.636Z,8.60
2023-01-18T03:55:15.379Z,8.50
2023-01-18T03:57:47.461Z,8.53
2023-01-18T04:00:16.140Z,8.53
2023-01-18T04:02:48.024Z,9.27
2023-01-18T04:05:16.717Z,8.90
2023-01-18T04:07:44.683Z,8.90
2023-01-18T04:10:13.271Z,9.40
2023-01-18T04:12:41.277Z,17.70
2023-01-18T04:15:10.380Z,11.43
2023-01-18T04:17:39.602Z,12.00
2023-01-18T04:20:10.637Z,10.73
2023-01-18T04:22:38.535Z,9.20
2023-01-18T04:25:07.215Z,8.60
2023-01-18T04:27:35.128Z,9.10
2023-01-18T04:30:03.104Z,9.53
2023-01-18T04:32:31.054Z,9.27
2023-01-18T04:34:59.013Z,11.03
2023-01-18T04:37:30.513Z,10.20
2023-01-18T04:39:58.701Z,10.67
2023-01-18T04:42:26.671Z,9.73
2023-01-18T04:44:54.741Z,10.07
2023-01-18T04:47:23.191Z,9.43
2023-01-18T04:49:51.344Z,8.87
2023-01-18T04:52:19.444Z,8.87
2023-01-18T04:54:48.948Z,9.50
2023-01-18T04:57:16.959Z,8.77
2023-01-18T04:59:46.555Z,10.87
2023-01-18T05:02:16.128Z,10.20
2023-01-18T05:04:44.933Z,9.50
2023-01-18T05:07:13.532Z,9.20
2023-01-18T05:09:41.452Z,8.93
2023-01-18T05:12:10.999Z,9.03
2023-01-18T05:14:38.988Z,8.90
2023-01-18T05:17:07.363Z,9.77
2023-01-18T05:19:35.474Z,10.20
2023-01-18T05:22:03.514Z,10.20
2023-01-18T05:24:31.502Z,10.90
2023-01-18T05:26:59.811Z,11.43
2023-01-18T05:29:29.211Z,12.10
2023-01-18T05:31:57.280Z,10.73
2023-01-18T05:34:25.254Z,10.33
2023-01-18T05:36:53.279Z,10.40
2023-01-18T05:39:21.242Z,10.17
2023-01-18T05:41:49.179Z,13.03
2023-01-18T05:44:17.166Z,12.73
2023-01-18T05:46:46.457Z,12.83
2023-01-18T05:49:14.783Z,10.87
2023-01-18T05:51:42.747Z,11.70
2023-01-18T05:54:11.868Z,12.40
2023-01-18T05:56:39.845Z,11.30
2023-01-18T05:59:07.824Z,10.80
2023-01-18T06:01:35.883Z,11.20
2023-01-18T06:04:05.296Z,12.03
2023-01-18T06:06:34.751Z,11.13
2023-01-18T06:09:03.301Z,13.30
2023-01-18T06:11:31.310Z,13.57
2023-01-18T06:13:59.226Z,11.90
2023-01-18T06:16:27.342Z,11.40
2023-01-18T06:18:55.457Z,12.80
2023-01-18T06:21:24.732Z,12.30
2023-01-18T06:23:52.608Z,13.67
2023-01-18T06:26:20.668Z,12.37
2023-01-18T06:28:48.603Z,12.90
2023-01-18T06:31:16.636Z,14.90
2023-01-18T06:33:44.551Z,14.00
2023-01-18T06:36:12.537Z,13.00
2023-01-18T06:38:42.302Z,14.20
2023-01-18T06:41:10.216Z,13.80
2023-01-18T06:43:38.138Z,12.73
2023-01-18T06:46:08.209Z,15.73
2023-01-18T06:48:36.319Z,13.90
2023-01-18T06:51:04.411Z,14.00
2023-01-18T06:53:32.301Z,14.37
2023-01-18T06:56:02.691Z,14.47
2023-01-18T06:58:32.640Z,15.97
2023-01-18T07:01:01.834Z,13.40
2023-01-18T07:03:31.367Z,13.00
2023-01-18T07:06:01.007Z,16.90
2023-01-18T07:08:31.282Z,24.40
2023-01-18T07:11:04.677Z,14.70
2023-01-18T07:13:32.853Z,13.30
2023-01-18T07:16:02.003Z,17.27
2023-01-18T07:18:31.241Z,13.93
2023-01-18T07:21:00.928Z,14.90
2023-01-18T07:23:29.494Z,13.83
2023-01-18T07:26:06.977Z,15.13
2023-01-18T07:28:36.372Z,16.40
2023-01-18T07:31:07.931Z,17.20
2023-01-18T07:33:36.686Z,15.43
2023-01-18T07:36:06.305Z,13.20
2023-01-18T07:38:34.686Z,12.77
2023-01-18T07:41:06.231Z,12.60
2023-01-18T07:43:34.915Z,16.53
2023-01-18T07:46:04.198Z,13.30
2023-01-18T07:48:33.111Z,19.67
2023-01-18T07:51:02.906Z,15.63
2023-01-18T07:53:32.093Z,26.07
2023-01-18T07:56:00.855Z,28.33
2023-01-18T07:58:30.618Z,19.50
2023-01-18T08:01:04.238Z,17.60
2023-01-18T08:03:32.223Z,14.70
2023-01-18T08:06:00.724Z,14.03
2023-01-18T08:08:29.025Z,14.50
2023-01-18T08:10:58.145Z,13.67
2023-01-18T08:13:27.285Z,13.33
2023-01-18T08:15:59.498Z,12.97
2023-01-18T08:18:27.543Z,13.67
2023-01-18T08:20:55.585Z,14.13
2023-01-18T08:23:24.095Z,13.00
2023-01-18T08:25:52.118Z,13.23
2023-01-18T08:28:20.309Z,13.70
2023-01-18T08:30:49.391Z,12.70
2023-01-18T08:33:19.078Z,14.23
2023-01-18T08:35:49.028Z,13.30
2023-01-18T08:38:17.988Z,11.80
2023-01-18T08:40:46.075Z,13.07
2023-01-18T08:43:14.092Z,13.57
2023-01-18T08:45:42.060Z,11.60
2023-01-18T08:48:12.195Z,10.60
2023-01-18T08:50:42.955Z,11.70
2023-01-18T08:53:11.042Z,12.63
2023-01-18T08:55:40.892Z,13.57
2023-01-18T08:58:09.155Z,11.93
2023-01-18T09:00:37.207Z,11.23
2023-01-18T09:03:06.719Z,11.00
2023-01-18T09:05:36.392Z,11.10
2023-01-18T09:08:05.973Z,11.23
2023-01-18T09:10:37.341Z,12.07
2023-01-18T09:13:05.576Z,11.43
2023-01-18T09:15:34.240Z,10.30
2023-01-18T09:18:06.072Z,10.60
2023-01-18T09:20:36.498Z,9.90
2023-01-18T09:23:10.680Z,10.27
2023-01-18T09:25:39.221Z,9.27
2023-01-18T09:28:07.265Z,9.03
2023-01-18T09:30:35.853Z,9.83
2023-01-18T09:33:03.772Z,9.43
2023-01-18T09:35:33.022Z,9.00
2023-01-18T09:38:00.947Z,9.20
2023-01-18T09:40:40.447Z,8.77
2023-01-18T09:43:16.896Z,9.37
2023-01-18T09:45:48.821Z,9.27
2023-01-18T09:48:28.826Z,8.73
2023-01-18T09:51:00.588Z,8.27
2023-01-18T09:53:40.957Z,9.00
2023-01-18T09:56:17.387Z,8.80
2023-01-18T09:58:59.197Z,7.83
2023-01-18T10:01:32.394Z,7.33
2023-01-18T10:04:05.061Z,7.10
2023-01-18T10:06:44.029Z,7.00
2023-01-18T10:09:15.798Z,7.10
2023-01-18T10:11:51.038Z,6.97
2023-01-18T10:14:23.685Z,6.30
2023-01-18T10:16:57.140Z,6.70
2023-01-18T10:19:28.432Z,6.43
2023-01-18T10:22:04.147Z,6.00
2023-01-18T10:24:45.133Z,5.80
2023-01-18T10:27:47.172Z,5.57
2023-01-18T10:30:38.090Z,4.80
2023-01-18T10:33:16.982Z,4.77
2023-01-18T10:35:48.060Z,5.63
2023-01-18T10:38:19.963Z,5.00
2023-01-18T10:40:52.507Z,4.80
2023-01-18T10:43:25.100Z,5.77
2023-01-18T10:45:54.413Z,5.53
2023-01-18T10:48:28.908Z,4.77
2023-01-18T10:50:59.600Z,6.20
2023-01-18T10:53:31.411Z,5.80
2023-01-18T10:56:03.876Z,4.27
2023-01-18T10:58:39.380Z,4.17
2023-01-18T11:01:13.729Z,3.70
2023-01-18T11:03:47.578Z,4.50
2023-01-18T11:06:17.262Z,3.60
2023-01-18T11:08:45.481Z,4.07
2023-01-18T11:11:48.988Z,3.97
2023-01-18T11:14:27.488Z,3.60
2023-01-18T11:17:00.756Z,3.77
2023-01-18T11:19:28.912Z,4.37
2023-01-18T11:21:57.323Z,3.80
2023-01-18T11:24:28.939Z,4.40
2023-01-18T11:27:01.629Z,4.10
2023-01-18T11:29:34.171Z,3.60
2023-01-18T11:32:05.388Z,3.97
2023-01-18T11:34:35.793Z,3.80
2023-01-18T11:37:04.336Z,4.10
2023-01-18T11:39:34.928Z,4.23
2023-01-18T11:42:23.584Z,6.47
2023-01-18T11:45:04.690Z,4.87
2023-01-18T11:47:42.515Z,3.27
2023-01-18T11:50:24.832Z,4.00
2023-01-18T11:52:57.424Z,3.00
2023-01-18T11:55:33.358Z,4.63
2023-01-18T11:58:01.916Z,3.33
2023-01-18T12:00:46.191Z,3.53
2023-01-18T12:03:38.243Z,4.00
2023-01-18T12:06:16.062Z,2.97
2023-01-18T12:09:04.184Z,3.30
2023-01-18T12:11:47.552Z,3.07
2023-01-18T12:14:29.228Z,3.10
2023-01-18T12:17:09.177Z,2.60
2023-01-18T12:19:53.922Z,2.90
2023-01-18T12:22:43.779Z,3.30
2023-01-18T12:25:43.192Z,3.10
2023-01-18T12:28:26.941Z,2.73
2023-01-18T12:31:06.727Z,2.77
2023-01-18T12:33:45.213Z,2.60
2023-01-18T12:36:42.418Z,3.07
2023-01-18T12:39:26.247Z,2.50
2023-01-18T12:41:58.434Z,3.47
2023-01-18T12:44:47.749Z,2.50
2023-01-18T12:47:32.717Z,2.20
2023-01-18T12:50:06.146Z,2.10
2023-01-18T12:52:40.551Z,2.00
2023-01-18T12:55:16.471Z,3.77
2023-01-18T12:57:46.677Z,2.30
2023-01-18T13:00:20.114Z,2.30
2023-01-18T13:02:51.803Z,2.83
2023-01-18T13:05:33.043Z,2.03
2023-01-18T13:08:06.391Z,2.33
2023-01-18T13:10:36.184Z,1.80
2023-01-18T13:13:06.199Z,1.83
2023-01-18T13:15:43.140Z,2.00
2023-01-18T13:18:16.779Z,2.10
2023-01-18T13:20:57.625Z,2.77
2023-01-18T13:23:33.345Z,2.37
2023-01-18T13:26:14.462Z,1.90
2023-01-18T13:28:43.154Z,2.00
2023-01-18T13:31:11.698Z,1.87
2023-01-18T13:33:44.792Z,2.00
2023-01-18T13:36:17.243Z,2.07
2023-01-18T13:38:51.669Z,1.63
2023-01-18T13:41:25.149Z,2.07
2023-01-18T13:44:05.380Z,2.20
2023-01-18T13:46:36.484Z,2.30
2023-01-18T13:49:37.295Z,1.70
2023-01-18T13:55:25.295Z,2.00
2023-01-18T13:57:55.658Z,2.17
2023-01-18T14:00:25.474Z,1.87
2023-01-18T14:02:57.448Z,1.70
2023-01-18T14:05:27.625Z,4.30
2023-01-18T14:07:58.696Z,1.53
2023-01-18T14:10:33.126Z,1.80
2023-01-18T14:13:03.272Z,1.40
2023-01-18T14:15:45.347Z,1.40
2023-01-18T14:18:20.761Z,1.00
2023-01-18T14:21:12.266Z,1.50
2023-01-18T14:24:00.137Z,1.40
2023-01-18T14:26:31.883Z,2.90
2023-01-18T14:29:03.792Z,2.30
2023-01-18T14:31:34.190Z,16.60
2023-01-18T14:34:24.896Z,2.80
2023-01-18T14:36:53.728Z,2.03
2023-01-18T14:39:22.652Z,1.40
2023-01-18T14:41:56.165Z,1.50
2023-01-18T14:44:26.919Z,2.23
2023-01-18T14:46:57.375Z,3.53
2023-01-18T14:49:29.952Z,3.13
2023-01-18T14:51:59.392Z,1.30
2023-01-18T14:54:27.427Z,1.53
2023-01-18T14:57:04.121Z,1.40
2023-01-18T14:59:33.320Z,2.43
2023-01-18T15:02:02.800Z,1.30
2023-01-18T15:04:35.299Z,1.83
2023-01-18T15:07:06.152Z,1.77
2023-01-18T15:09:37.064Z,3.20
2023-01-18T15:12:11.423Z,3.03
2023-01-18T15:14:43.923Z,8.27
2023-01-18T15:17:21.406Z,5.60
2023-01-18T15:19:52.969Z,5.20
2023-01-18T15:22:25.007Z,4.50
2023-01-18T15:24:53.099Z,5.77
2023-01-18T15:27:23.259Z,2.40
2023-01-18T15:29:54.461Z,4.07
2023-01-18T15:32:24.207Z,4.03
2023-01-18T15:34:54.410Z,3.00
2023-01-18T15:37:25.724Z,1.57
2023-01-18T15:40:00.584Z,2.30
2023-01-18T15:42:36.019Z,2.40
2023-01-18T15:45:04.808Z,3.07
2023-01-18T15:47:37.624Z,5.03
2023-01-18T15:50:16.849Z,2.77
2023-01-18T15:52:47.591Z,4.23
2023-01-18T15:55:24.036Z,4.03
2023-01-18T15:57:58.883Z,3.07
2023-01-18T16:00:34.439Z,6.00
2023-01-18T16:03:04.477Z,1.83
2023-01-18T16:05:32.783Z,2.47
2023-01-18T16:08:22.647Z,3.50
2023-01-18T16:10:53.627Z,4.00
2023-01-18T16:13:36.901Z,2.80
2023-01-18T16:16:18.912Z,6.50
2023-01-18T16:18:49.618Z,4.53
2023-01-18T16:21:24.599Z,4.60
2023-01-18T16:23:53.431Z,4.10
2023-01-18T16:26:26.658Z,4.10
2023-01-18T16:29:05.891Z,3.97
2023-01-18T16:31:34.846Z,3.80
2023-01-18T16:34:04.107Z,3.50
2023-01-18T16:36:37.925Z,3.27
2023-01-18T16:39:09.780Z,3.33
2023-01-18T16:41:38.085Z,3.60
2023-01-18T16:44:07.430Z,3.57
2023-01-18T16:46:36.256Z,3.20
2023-01-18T16:49:04.388Z,3.53
2023-01-18T16:51:32.373Z,3.90
2023-01-18T16:54:01.096Z,4.30
2023-01-18T16:56:29.096Z,8.13
2023-01-18T16:58:57.064Z,3.53
2023-01-18T17:01:26.543Z,4.13
2023-01-18T17:03:54.532Z,4.90
2023-01-18T17:06:23.522Z,5.07
2023-01-18T17:08:51.705Z,4.17
2023-01-18T17:11:19.635Z,4.03
2023-01-18T17:13:48.284Z,3.03
2023-01-18T17:16:19.546Z,3.50
2023-01-18T17:18:50.057Z,3.30
2023-01-18T17:21:18.007Z,4.73
2023-01-18T17:23:45.964Z,8.53
2023-01-18T17:26:16.583Z,13.23
2023-01-18T17:28:45.446Z,8.03
2023-01-18T17:31:13.435Z,6.90
2023-01-18T17:33:42.945Z,11.87
2023-01-18T17:36:12.413Z,6.00
2023-01-18T17:38:41.410Z,4.90
2023-01-18T17:41:22.858Z,22.00
2023-01-18T17:43:54.843Z,5.00
2023-01-18T17:46:22.846Z,3.90
2023-01-18T17:48:50.823Z,5.27
2023-01-18T17:51:20.927Z,4.53
2023-01-18T17:53:48.817Z,4.23
2023-01-18T17:56:18.160Z,10.10
2023-01-18T17:58:47.053Z,14.00
2023-01-18T18:01:16.663Z,6.63
2023-01-18T18:03:48.850Z,7.00
2023-01-18T18:06:30.319Z,4.07
2023-01-18T18:09:01.387Z,5.70
2023-01-18T18:11:29.652Z,28.47
2023-01-18T18:13:58.906Z,10.00
2023-01-18T18:16:27.612Z,5.17
2023-01-18T18:18:57.122Z,3.90
2023-01-18T18:21:27.209Z,4.10
2023-01-18T18:23:55.483Z,4.00
2023-01-18T18:26:25.023Z,3.53
2023-01-18T18:28:52.944Z,4.07
2023-01-18T18:31:21.572Z,4.47
2023-01-18T18:33:49.639Z,3.33
2023-01-18T18:36:17.739Z,3.60
2023-01-18T18:38:45.878Z,4.30
2023-01-18T18:41:14.137Z,3.23
2023-01-18T18:43:44.051Z,3.50
2023-01-18T18:46:12.326Z,3.80
2023-01-18T18:48:40.259Z,3.40
2023-01-18T18:51:08.244Z,3.17
2023-01-18T18:53:38.419Z,2.90
2023-01-18T18:56:09.412Z,2.87
2023-01-18T18:58:37.796Z,2.53
2023-01-18T19:01:08.573Z,2.33
2023-01-18T19:03:36.728Z,2.47
2023-01-18T19:06:04.768Z,2.37
2023-01-18T19:08:32.675Z,4.40
2023-01-18T19:11:00.634Z,3.27
2023-01-18T19:13:28.864Z,1.70
2023-01-18T19:15:56.930Z,1.70
2023-01-18T19:18:26.447Z,2.17
2023-01-18T19:20:54.408Z,2.33
2023-01-18T19:23:22.369Z,2.10
2023-01-18T19:25:50.752Z,2.30
2023-01-18T19:28:19.174Z,2.10
2023-01-18T19:30:47.325Z,2.67
2023-01-18T19:33:15.599Z,2.00
2023-01-18T19:35:46.419Z,2.43
2023-01-18T19:38:14.735Z,2.10
2023-01-18T19:40:42.892Z,1.83
2023-01-18T19:43:10.795Z,2.23
2023-01-18T19:45:39.191Z,2.27
2023-01-18T19:48:07.594Z,2.60
2023-01-18T19:50:35.521Z,2.27
2023-01-18T19:53:04.796Z,2.50
2023-01-18T19:55:32.733Z,2.80
2023-01-18T19:58:02.061Z,2.60
2023-01-18T20:00:30.491Z,2.50
2023-01-18T20:02:59.611Z,3.20
2023-01-18T20:05:28.286Z,2.57
2023-01-18T20:07:56.878Z,2.60
2023-01-18T20:10:26.202Z,2.60
2023-01-18T20:12:54.115Z,3.77
2023-01-18T20:15:22.960Z,2.27
2023-01-18T20:17:50.955Z,2.73
2023-01-18T20:20:31.291Z,2.67
2023-01-18T20:23:00.670Z,2.70
2023-01-18T20:25:30.477Z,3.20
2023-01-18T20:27:58.493Z,3.70
2023-01-18T20:30:26.407Z,2.63
2023-01-18T20:32:54.355Z,3.47
2023-01-18T20:35:22.816Z,3.47
2023-01-18T20:37:52.068Z,3.10
2023-01-18T20:40:20.390Z,3.30
2023-01-18T20:42:49.646Z,2.67
2023-01-18T20:45:17.724Z,3.50
2023-01-18T20:47:45.709Z,3.40
2023-01-18T20:50:13.626Z,3.20
2023-01-18T20:52:41.844Z,4.13
2023-01-18T20:55:12.959Z,3.10
2023-01-18T20:57:40.915Z,3.03
2023-01-18T21:00:12.537Z,3.70
2023-01-18T21:02:42.151Z,3.27
2023-01-18T21:05:10.547Z,3.30
2023-01-18T21:07:40.734Z,4.40
2023-01-18T21:10:10.909Z,4.50
2023-01-18T21:12:38.833Z,7.10
2023-01-18T21:15:09.052Z,5.23
2023-01-18T21:17:39.581Z,5.73
2023-01-18T21:20:08.592Z,6.00
2023-01-18T21:22:36.523Z,5.27
2023-01-18T21:25:05.235Z,4.43
2023-01-18T21:27:33.165Z,5.90
2023-01-18T21:30:01.101Z,4.40
2023-01-18T21:32:29.085Z,5.10
2023-01-18T21:34:58.391Z,5.30
2023-01-18T21:37:27.369Z,4.70
2023-01-18T21:39:58.166Z,5.17
2023-01-18T21:42:42.880Z,5.40
2023-01-18T21:45:29.485Z,4.57
2023-01-18T21:47:59.482Z,5.57
2023-01-18T21:50:46.607Z,5.13
2023-01-18T21:53:29.535Z,5.50
2023-01-18T21:55:57.489Z,5.50
2023-01-18T21:58:42.924Z,5.67
2023-01-18T22:01:12.179Z,7.70
2023-01-18T22:03:41.335Z,7.30
2023-01-18T22:06:12.116Z,7.43
2023-01-18T22:08:40.153Z,7.20
2023-01-18T22:11:08.141Z,5.97
2023-01-18T22:13:36.532Z,6.47
2023-01-18T22:16:06.568Z,5.07
2023-01-18T22:18:34.534Z,4.70
2023-01-18T22:21:02.462Z,4.60
2023-01-18T22:23:31.777Z,4.77
2023-01-18T22:25:59.715Z,4.83
2023-01-18T22:28:28.068Z,4.67
2023-01-18T22:30:56.037Z,9.13
2023-01-18T22:33:24.044Z,8.60
2023-01-18T22:35:57.455Z,7.63
2023-01-18T22:38:25.417Z,13.70
2023-01-18T22:41:03.673Z,10.97
2023-01-18T22:43:31.911Z,5.80
2023-01-18T22:46:00.418Z,5.73
2023-01-18T22:48:28.893Z,5.07
2023-01-18T22:50:58.083Z,5.67
2023-01-18T22:53:27.979Z,5.23
2023-01-18T22:55:55.987Z,6.10
2023-01-18T22:58:25.349Z,5.90
2023-01-18T23:00:53.339Z,5.20
2023-01-18T23:03:22.208Z,5.60
2023-01-18T23:05:54.750Z,4.87
2023-01-18T23:08:23.206Z,5.77
2023-01-18T23:10:56.974Z,4.83
2023-01-18T23:13:26.444Z,5.53
2023-01-18T23:16:12.084Z,5.43
2023-01-18T23:18:40.020Z,5.90
2023-01-18T23:21:08.010Z,5.00
2023-01-18T23:23:35.954Z,5.87
2023-01-18T23:26:03.991Z,5.20
2023-01-18T23:28:42.069Z,5.60
2023-01-18T23:31:11.001Z,5.70
2023-01-18T23:33:40.116Z,5.50
2023-01-18T23:36:09.530Z,5.63
2023-01-18T23:38:55.007Z,5.77
2023-01-18T23:41:40.489Z,6.33
2023-01-18T23:44:27.235Z,4.97
2023-01-18T23:47:12.721Z,4.97
2023-01-18T23:49:58.300Z,4.90
2023-01-18T23:52:43.794Z,5.00
2023-01-18T23:55:11.975Z,5.30
2023-01-18T23:57:40.041Z,4.83
